sensor_id;sensor_type;location;lat;lon;timestamp;temperature;humidity
23755;DHT22;12057;52.042;6.830;2023-06-22T14:39:40;24.90;99.90
23755;DHT22;12057;52.042;6.830;2023-06-22T14:44:41;24.90;99.90
23755;DHT22;12057;52.042;6.830;2023-06-22T14:49:42;25.00;99.90
23755;DHT22;12057;52.042;6.830;2023-06-22T14:54:43;24.80;99.90
23755;DHT22;12057;52.042;6.830;2023-06-22T14:59:45;24.70;99.90
23755;DHT22;12057;52.042;6.830;2023-06-22T15:04:46;24.60;99.90
23755;DHT22;12057;52.042;6.830;2023-06-22T15:09:47;24.70;99.90
23755;DHT22;12057;52.042;6.830;2023-06-22T15:14:48;24.90;99.90
23755;DHT22;12057;52.042;6.830;2023-06-22T15:19:49;24.80;99.90
23755;DHT22;12057;52.042;6.830;2023-06-22T15:24:49;24.60;99.90
23755;DHT22;12057;52.042;6.830;2023-06-22T15:29:53;24.70;99.90
23755;DHT22;12057;52.042;6.830;2023-06-22T15:34:54;24.70;99.90
23755;DHT22;12057;52.042;6.830;2023-06-22T15:39:54;24.60;99.90
23755;DHT22;12057;52.042;6.830;2023-06-22T15:44:56;24.70;99.90
23755;DHT22;12057;52.042;6.830;2023-06-22T15:49:57;24.40;99.90
23755;DHT22;12057;52.042;6.830;2023-06-22T15:54:58;24.30;99.90
23755;DHT22;12057;52.042;6.830;2023-06-22T16:00:04;24.40;99.90
23755;DHT22;12057;52.042;6.830;2023-06-22T16:05:09;24.20;99.90
23755;DHT22;12057;52.042;6.830;2023-06-22T16:10:10;24.30;99.90
23755;DHT22;12057;52.042;6.830;2023-06-22T16:15:11;23.90;99.90
23755;DHT22;12057;52.042;6.830;2023-06-22T16:20:12;23.80;99.90
23755;DHT22;12057;52.042;6.830;2023-06-22T16:25:13;23.80;99.90
23755;DHT22;12057;52.042;6.830;2023-06-22T16:30:17;23.50;99.90
23755;DHT22;12057;52.042;6.830;2023-06-22T16:35:18;23.40;99.90
23755;DHT22;12057;52.042;6.830;2023-06-22T16:40:18;23.40;99.90
23755;DHT22;12057;52.042;6.830;2023-06-22T16:45:21;23.60;99.90
23755;DHT22;12057;52.042;6.830;2023-06-22T16:50:21;23.70;99.90
23755;DHT22;12057;52.042;6.830;2023-06-22T16:55:27;23.80;99.90
23755;DHT22;12057;52.042;6.830;2023-06-22T17:00:30;23.90;99.90
23755;DHT22;12057;52.042;6.830;2023-06-22T17:05:31;23.90;99.90
23755;DHT22;12057;52.042;6.830;2023-06-22T17:10:33;23.80;99.90
23755;DHT22;12057;52.042;6.830;2023-06-22T17:15:34;23.60;99.90
23755;DHT22;12057;52.042;6.830;2023-06-22T17:20:36;23.30;99.90
23755;DHT22;12057;52.042;6.830;2023-06-22T17:25:37;23.30;99.90
23755;DHT22;12057;52.042;6.830;2023-06-22T17:30:39;23.30;99.90
23755;DHT22;12057;52.042;6.830;2023-06-22T17:35:49;23.00;99.90
23755;DHT22;12057;52.042;6.830;2023-06-22T17:40:52;22.90;99.90
23755;DHT22;12057;52.042;6.830;2023-06-22T17:45:57;22.60;99.90
23755;DHT22;12057;52.042;6.830;2023-06-22T17:51:00;22.40;99.90
23755;DHT22;12057;52.042;6.830;2023-06-22T17:56:01;22.30;99.90
23755;DHT22;12057;52.042;6.830;2023-06-22T18:01:02;22.30;99.90
23755;DHT22;12057;52.042;6.830;2023-06-22T18:06:03;22.10;99.90
23755;DHT22;12057;52.042;6.830;2023-06-22T18:11:07;21.90;99.90
23755;DHT22;12057;52.042;6.830;2023-06-22T18:16:09;22.10;99.90
23755;DHT22;12057;52.042;6.830;2023-06-22T18:21:10;21.70;99.90
23755;DHT22;12057;52.042;6.830;2023-06-22T18:26:12;21.40;99.90
23755;DHT22;12057;52.042;6.830;2023-06-22T18:31:13;21.50;99.90
23755;DHT22;12057;52.042;6.830;2023-06-22T18:36:15;21.50;99.90
23755;DHT22;12057;52.042;6.830;2023-06-22T18:41:21;21.40;99.90
23755;DHT22;12057;52.042;6.830;2023-06-22T19:02:57;20.70;99.90
23755;DHT22;12057;52.042;6.830;2023-06-22T19:07:59;20.80;99.90
23755;DHT22;12057;52.042;6.830;2023-06-22T19:18:24;20.30;99.90
23755;DHT22;12057;52.042;6.830;2023-06-22T19:23:33;19.90;99.90
23755;DHT22;12057;52.042;6.830;2023-06-22T19:29:14;20.00;99.90
23755;DHT22;12057;52.042;6.830;2023-06-22T19:34:04;19.70;99.90
23755;DHT22;12057;52.042;6.830;2023-06-22T19:39:05;19.50;99.90
23755;DHT22;12057;52.042;6.830;2023-06-22T19:44:06;19.60;99.90
23755;DHT22;12057;52.042;6.830;2023-06-22T19:49:07;19.20;99.90
23755;DHT22;12057;52.042;6.830;2023-06-22T19:54:09;19.30;99.90
23755;DHT22;12057;52.042;6.830;2023-06-22T19:59:13;19.40;99.90
23755;DHT22;12057;52.042;6.830;2023-06-22T20:04:15;19.10;99.90
23755;DHT22;12057;52.042;6.830;2023-06-22T20:09:16;19.20;99.90
23755;DHT22;12057;52.042;6.830;2023-06-22T20:14:19;19.30;99.90
23755;DHT22;12057;52.042;6.830;2023-06-22T20:19:20;19.30;99.90
23755;DHT22;12057;52.042;6.830;2023-06-22T20:24:21;19.10;99.90
23755;DHT22;12057;52.042;6.830;2023-06-22T20:29:32;19.10;99.90
23755;DHT22;12057;52.042;6.830;2023-06-22T20:34:38;19.20;99.90
23755;DHT22;12057;52.042;6.830;2023-06-22T20:39:39;19.30;99.90
23755;DHT22;12057;52.042;6.830;2023-06-22T20:44:40;19.30;99.90
23755;DHT22;12057;52.042;6.830;2023-06-22T20:49:41;19.20;99.90
23755;DHT22;12057;52.042;6.830;2023-06-22T20:54:41;19.10;99.90
23755;DHT22;12057;52.042;6.830;2023-06-22T20:59:42;19.20;99.90
23755;DHT22;12057;52.042;6.830;2023-06-22T21:04:43;19.00;99.90
23755;DHT22;12057;52.042;6.830;2023-06-22T21:09:44;19.10;99.90
23755;DHT22;12057;52.042;6.830;2023-06-22T21:14:45;19.10;99.90
23755;DHT22;12057;52.042;6.830;2023-06-22T21:19:45;18.90;99.90
23755;DHT22;12057;52.042;6.830;2023-06-22T21:25:05;19.00;99.90
23755;DHT22;12057;52.042;6.830;2023-06-22T21:30:09;19.00;99.90
23755;DHT22;12057;52.042;6.830;2023-06-22T21:35:10;19.20;99.90
23755;DHT22;12057;52.042;6.830;2023-06-22T21:40:11;19.30;99.90
23755;DHT22;12057;52.042;6.830;2023-06-22T21:45:12;19.20;99.90
23755;DHT22;12057;52.042;6.830;2023-06-22T21:50:13;19.10;99.90
23755;DHT22;12057;52.042;6.830;2023-06-22T21:55:14;19.20;99.90
23755;DHT22;12057;52.042;6.830;2023-06-22T22:00:14;18.80;99.90
23755;DHT22;12057;52.042;6.830;2023-06-22T22:05:15;18.70;99.90
23755;DHT22;12057;52.042;6.830;2023-06-22T22:10:16;18.70;99.90
23755;DHT22;12057;52.042;6.830;2023-06-22T22:15:18;18.70;99.90
23755;DHT22;12057;52.042;6.830;2023-06-22T22:20:19;18.70;99.90
23755;DHT22;12057;52.042;6.830;2023-06-22T22:25:19;18.50;99.90
23755;DHT22;12057;52.042;6.830;2023-06-22T22:30:20;18.60;99.90
23755;DHT22;12057;52.042;6.830;2023-06-22T22:35:24;18.70;99.90
23755;DHT22;12057;52.042;6.830;2023-06-22T22:40:25;18.50;99.90
23755;DHT22;12057;52.042;6.830;2023-06-22T22:45:25;18.60;99.90
23755;DHT22;12057;52.042;6.830;2023-06-22T22:50:26;18.60;99.90
23755;DHT22;12057;52.042;6.830;2023-06-22T22:55:27;18.80;99.90
23755;DHT22;12057;52.042;6.830;2023-06-22T23:00:28;18.80;99.90
23755;DHT22;12057;52.042;6.830;2023-06-22T23:05:28;18.50;99.90
23755;DHT22;12057;52.042;6.830;2023-06-22T23:10:29;18.70;99.90
23755;DHT22;12057;52.042;6.830;2023-06-22T23:15:30;18.70;99.90
23755;DHT22;12057;52.042;6.830;2023-06-22T23:20:31;18.70;99.90
23755;DHT22;12057;52.042;6.830;2023-06-22T23:25:32;18.90;99.90
23755;DHT22;12057;52.042;6.830;2023-06-22T23:30:36;18.70;99.90
23755;DHT22;12057;52.042;6.830;2023-06-22T23:35:38;18.70;99.90
23755;DHT22;12057;52.042;6.830;2023-06-22T23:40:40;18.80;99.90
23755;DHT22;12057;52.042;6.830;2023-06-22T23:45:41;18.90;99.90
23755;DHT22;12057;52.042;6.830;2023-06-22T23:50:42;18.70;99.90
23755;DHT22;12057;52.042;6.830;2023-06-22T23:55:43;18.70;99.90
